Time;durP1;ratioP1;P1;durP2;ratioP2;P2;SDS_P1;SDS_P2;PMS_P1;PMS_P2;Temp;Humidity;BMP_temperature;BMP_pressure;BME280_temperature;BME280_humidity;BME280_pressure;Samples;Min_cycle;Max_cycle;Signal;HPM_P1;HPM_P2
2022/03/28 00:02:22;;;;;;;9.87;5.10;;;11.20;99.90;;;;;;5057127;28;20484;-68
2022/03/28 00:04:48;;;;;;;7.97;4.50;;;11.10;99.90;;;;;;5056671;28;20556;-68
2022/03/28 00:07:15;;;;;;;5.03;4.50;;;11.00;99.90;;;;;;5069074;28;20923;-68
2022/03/28 00:09:42;;;;;;;5.03;4.43;;;11.00;99.90;;;;;;5067273;28;20847;-68
2022/03/28 00:12:10;;;;;;;6.30;5.70;;;11.00;99.90;;;;;;5064473;28;20443;-67
2022/03/28 00:14:38;;;;;;;6.53;5.50;;;10.90;99.90;;;;;;5069624;28;20774;-67
2022/03/28 00:17:05;;;;;;;8.13;4.87;;;10.90;99.90;;;;;;5063871;28;20466;-68
2022/03/28 00:19:32;;;;;;;5.60;5.10;;;10.80;99.90;;;;;;5068841;28;20530;-68
2022/03/28 00:21:58;;;;;;;10.80;5.20;;;10.80;99.90;;;;;;5078841;28;20548;-68
2022/03/28 00:24:25;;;;;;;6.10;3.70;;;10.80;99.90;;;;;;5069039;28;20494;-68
2022/03/28 00:26:54;;;;;;;6.10;5.50;;;10.70;99.90;;;;;;5078853;28;21822;-68
2022/03/28 00:29:21;;;;;;;7.47;5.73;;;10.70;99.90;;;;;;5073733;28;20457;-66
2022/03/28 00:31:49;;;;;;;7.30;5.90;;;10.70;99.90;;;;;;5070427;28;20446;-68
2022/03/28 00:34:21;;;;;;;4.97;4.20;;;10.60;99.90;;;;;;5078661;28;20779;-67
2022/03/28 00:36:48;;;;;;;7.00;5.33;;;10.60;99.90;;;;;;5082498;28;20460;-68
2022/03/28 00:39:16;;;;;;;5.70;4.53;;;10.60;99.90;;;;;;5076227;28;20583;-68
2022/03/28 00:41:43;;;;;;;6.90;5.70;;;10.50;99.90;;;;;;5080611;28;20489;-68
2022/03/28 00:44:09;;;;;;;7.83;5.93;;;10.50;99.90;;;;;;5076348;28;20470;-66
2022/03/28 00:46:37;;;;;;;6.30;5.03;;;10.50;99.90;;;;;;5078095;28;20444;-68
2022/03/28 00:49:05;;;;;;;7.40;4.77;;;10.50;99.90;;;;;;5068153;28;20481;-69
2022/03/28 00:51:32;;;;;;;6.37;4.63;;;10.50;99.90;;;;;;5071912;28;20450;-67
2022/03/28 00:54:00;;;;;;;6.60;5.90;;;10.50;99.90;;;;;;5077349;28;20447;-68
2022/03/28 00:56:26;;;;;;;7.07;4.83;;;10.40;99.90;;;;;;5076536;28;20551;-68
2022/03/28 00:58:53;;;;;;;6.07;5.20;;;10.40;99.90;;;;;;5076436;28;20451;-66
2022/03/28 01:01:20;;;;;;;6.90;4.83;;;10.40;99.90;;;;;;5071621;28;20483;-68
2022/03/28 01:03:46;;;;;;;7.27;6.00;;;10.30;99.90;;;;;;5069462;28;20464;-68
2022/03/28 01:06:14;;;;;;;8.37;6.17;;;10.20;99.90;;;;;;5080695;28;20452;-68
2022/03/28 01:08:41;;;;;;;6.43;4.73;;;10.20;99.90;;;;;;5068823;28;20515;-68
2022/03/28 01:11:10;;;;;;;10.33;6.47;;;10.20;99.90;;;;;;5075901;28;20492;-68
2022/03/28 01:13:38;;;;;;;7.27;5.67;;;10.20;99.90;;;;;;5079528;28;20544;-68
2022/03/28 01:16:05;;;;;;;7.07;5.97;;;10.10;99.90;;;;;;5075031;28;20825;-68
2022/03/28 01:18:31;;;;;;;7.83;5.87;;;10.10;99.90;;;;;;5065966;28;20570;-68
2022/03/28 01:21:00;;;;;;;7.93;5.80;;;10.10;99.90;;;;;;5069686;28;20570;-68
2022/03/28 01:23:28;;;;;;;7.20;4.80;;;10.00;99.90;;;;;;5071426;28;20469;-68
2022/03/28 01:25:56;;;;;;;6.10;4.50;;;10.00;99.90;;;;;;5070444;28;20573;-68
2022/03/28 01:28:24;;;;;;;7.78;5.80;;;10.00;99.90;;;;;;5072015;28;20538;-68
2022/03/28 01:30:53;;;;;;;9.43;5.60;;;9.90;99.90;;;;;;5066236;28;20209;-68
2022/03/28 01:33:19;;;;;;;7.93;5.03;;;9.90;99.90;;;;;;5066327;28;20962;-68
2022/03/28 01:35:46;;;;;;;6.00;4.93;;;9.80;99.90;;;;;;5073584;28;20559;-68
2022/03/28 01:38:16;;;;;;;10.03;6.47;;;9.80;99.90;;;;;;5076667;28;20455;-68
2022/03/28 01:40:45;;;;;;;10.27;7.13;;;9.80;99.90;;;;;;5062311;28;20574;-67
2022/03/28 01:43:13;;;;;;;7.72;6.10;;;9.80;99.90;;;;;;5068948;28;20953;-68
2022/03/28 01:45:40;;;;;;;11.02;7.90;;;9.70;99.90;;;;;;5072656;28;20216;-68
2022/03/28 01:48:07;;;;;;;10.80;6.70;;;9.70;99.90;;;;;;5066607;28;20620;-68
2022/03/28 01:50:35;;;;;;;11.45;7.22;;;9.70;99.90;;;;;;5072212;28;20481;-68
2022/03/28 01:53:02;;;;;;;10.07;6.47;;;9.70;99.90;;;;;;5072444;28;20314;-68
2022/03/28 01:55:30;;;;;;;10.10;6.95;;;9.60;99.90;;;;;;5065404;28;20221;-68
2022/03/28 01:57:57;;;;;;;11.57;7.57;;;9.60;99.90;;;;;;5074446;28;20270;-68
2022/03/28 02:00:28;;;;;;;12.93;8.30;;;9.60;99.90;;;;;;5065629;28;20201;-68
2022/03/28 02:02:55;;;;;;;11.70;7.90;;;9.60;99.90;;;;;;5069940;28;20477;-68
2022/03/28 02:05:22;;;;;;;9.93;7.80;;;9.50;99.90;;;;;;5080855;28;20682;-67
2022/03/28 02:07:49;;;;;;;12.52;8.25;;;9.50;99.90;;;;;;5078483;28;20450;-68
2022/03/28 02:10:18;;;;;;;13.18;8.35;;;9.40;99.90;;;;;;5077091;28;20304;-68
2022/03/28 02:12:47;;;;;;;10.98;8.00;;;9.50;99.90;;;;;;5070743;28;20338;-68
2022/03/28 02:15:14;;;;;;;13.70;8.43;;;9.50;99.90;;;;;;5064256;28;20217;-68
2022/03/28 02:17:41;;;;;;;10.85;7.88;;;9.50;99.90;;;;;;5080628;28;20675;-68
2022/03/28 02:20:10;;;;;;;9.50;7.15;;;9.40;99.90;;;;;;5071380;28;20274;-68
2022/03/28 02:22:38;;;;;;;9.23;7.75;;;9.40;99.90;;;;;;5068986;28;20303;-68
2022/03/28 02:25:06;;;;;;;10.70;6.90;;;9.40;99.90;;;;;;5066084;28;20726;-69
2022/03/28 02:27:33;;;;;;;9.18;7.38;;;9.50;99.90;;;;;;5074296;28;20246;-68
2022/03/28 02:30:01;;;;;;;11.40;8.57;;;9.50;99.90;;;;;;5066819;28;20204;-68
2022/03/28 02:32:28;;;;;;;10.10;6.90;;;9.40;99.90;;;;;;5062207;28;20685;-68
2022/03/28 02:34:54;;;;;;;9.55;6.63;;;9.40;99.90;;;;;;5065352;28;20589;-68
2022/03/28 02:37:21;;;;;;;16.45;8.07;;;9.40;99.90;;;;;;5069722;28;20201;-68
2022/03/28 02:39:47;;;;;;;12.45;7.88;;;9.40;99.90;;;;;;5065656;28;20300;-68
2022/03/28 02:42:15;;;;;;;9.43;8.00;;;9.40;99.90;;;;;;5075461;28;20220;-68
2022/03/28 02:44:42;;;;;;;13.68;9.00;;;9.40;99.90;;;;;;5069278;28;20235;-68
2022/03/28 02:47:10;;;;;;;9.63;8.10;;;9.30;99.90;;;;;;5072222;28;20265;-68
2022/03/28 02:49:37;;;;;;;11.85;8.13;;;9.30;99.90;;;;;;5076504;28;20292;-68
2022/03/28 02:52:04;;;;;;;14.82;9.55;;;9.30;99.90;;;;;;5065672;28;20750;-67
2022/03/28 02:54:31;;;;;;;11.40;6.75;;;9.30;99.90;;;;;;5064172;28;20216;-68
2022/03/28 02:56:57;;;;;;;12.32;8.65;;;9.30;99.90;;;;;;5072673;28;20301;-68
2022/03/28 02:59:24;;;;;;;10.10;7.90;;;9.30;99.90;;;;;;5072473;28;20695;-68
2022/03/28 03:01:51;;;;;;;12.13;8.20;;;9.20;99.90;;;;;;5066653;28;20232;-68
2022/03/28 03:04:19;;;;;;;13.55;9.20;;;9.20;99.90;;;;;;5072342;28;20314;-66
2022/03/28 03:06:46;;;;;;;8.88;7.07;;;9.20;99.90;;;;;;5073657;28;20624;-67
2022/03/28 03:09:12;;;;;;;20.27;9.45;;;9.20;99.90;;;;;;5069702;28;20263;-67
2022/03/28 03:11:40;;;;;;;9.15;7.25;;;9.20;99.90;;;;;;5073920;28;20188;-66
2022/03/28 03:14:07;;;;;;;10.30;8.02;;;9.20;99.90;;;;;;5069652;28;20326;-67
2022/03/28 03:16:33;;;;;;;7.10;6.32;;;9.20;99.90;;;;;;5076250;28;20796;-66
2022/03/28 03:19:00;;;;;;;14.25;9.65;;;9.20;99.90;;;;;;5063602;28;20205;-67
2022/03/28 03:21:28;;;;;;;8.43;7.60;;;9.10;99.90;;;;;;5065324;28;20216;-66
2022/03/28 03:23:54;;;;;;;12.48;8.00;;;9.10;99.90;;;;;;5069411;28;20582;-67
2022/03/28 03:26:21;;;;;;;13.23;7.28;;;9.10;99.90;;;;;;5069033;28;20197;-66
2022/03/28 03:28:48;;;;;;;10.55;8.07;;;9.10;99.90;;;;;;5065478;28;20209;-66
2022/03/28 03:31:15;;;;;;;17.30;8.23;;;9.10;99.90;;;;;;5073949;28;20205;-66
2022/03/28 03:33:42;;;;;;;11.55;7.65;;;9.00;99.90;;;;;;5063545;28;20197;-66
2022/03/28 03:36:08;;;;;;;9.73;7.70;;;8.90;99.90;;;;;;5063916;28;20232;-66
2022/03/28 03:38:36;;;;;;;11.13;7.97;;;8.90;99.90;;;;;;5071792;28;20276;-66
2022/03/28 03:41:03;;;;;;;11.07;7.50;;;8.90;99.90;;;;;;5064312;28;20208;-66
2022/03/28 03:43:29;;;;;;;11.60;8.15;;;8.90;99.90;;;;;;5065953;28;20215;-66
2022/03/28 03:45:56;;;;;;;9.70;7.05;;;8.90;99.90;;;;;;5065282;28;20220;-67
2022/03/28 03:48:24;;;;;;;9.98;7.85;;;8.90;99.90;;;;;;5075736;28;20262;-67
2022/03/28 03:50:51;;;;;;;7.78;5.85;;;8.90;99.90;;;;;;5084101;28;20287;-67
2022/03/28 03:53:19;;;;;;;8.98;5.97;;;8.90;99.90;;;;;;5068690;28;20196;-67
2022/03/28 03:55:48;;;;;;;11.18;6.53;;;8.90;99.90;;;;;;5065736;28;20225;-67
2022/03/28 03:58:14;;;;;;;8.13;7.32;;;8.80;99.90;;;;;;5073539;28;20774;-67
2022/03/28 04:00:41;;;;;;;7.20;5.57;;;8.80;99.90;;;;;;5071196;28;20209;-67
2022/03/28 04:03:08;;;;;;;7.85;6.22;;;8.70;99.90;;;;;;5070629;28;20373;-67
2022/03/28 04:05:37;;;;;;;9.45;6.85;;;8.70;99.90;;;;;;5069039;28;20224;-67
2022/03/28 04:08:05;;;;;;;11.15;8.88;;;8.70;99.90;;;;;;5078594;28;20315;-68
2022/03/28 04:10:32;;;;;;;6.70;6.10;;;8.60;99.90;;;;;;5068149;28;20242;-68
2022/03/28 04:13:00;;;;;;;7.30;6.15;;;8.60;99.90;;;;;;5068718;28;20270;-68
2022/03/28 04:15:27;;;;;;;12.32;7.57;;;8.50;99.90;;;;;;5095851;22;20945;-71
2022/03/28 04:17:53;;;;;;;8.23;6.55;;;8.50;99.90;;;;;;5076882;28;20204;-67
2022/03/28 04:20:20;;;;;;;10.60;6.30;;;8.50;99.90;;;;;;5074474;28;20263;-69
2022/03/28 04:22:47;;;;;;;10.05;7.28;;;8.40;99.90;;;;;;5074569;28;20232;-69
2022/03/28 04:25:15;;;;;;;8.82;7.75;;;8.40;99.90;;;;;;5066716;28;20244;-70
2022/03/28 04:27:42;;;;;;;9.35;6.53;;;8.40;99.90;;;;;;5079147;28;20201;-71
2022/03/28 04:30:12;;;;;;;7.60;6.90;;;8.40;99.90;;;;;;5052306;28;20199;-69
2022/03/28 04:32:40;;;;;;;9.25;8.05;;;8.40;99.90;;;;;;5050271;28;20280;-68
2022/03/28 04:35:08;;;;;;;9.77;8.27;;;8.40;99.90;;;;;;5054108;28;20225;-70
2022/03/28 04:37:35;;;;;;;13.05;8.23;;;8.40;99.90;;;;;;5049422;28;20779;-70
2022/03/28 04:40:02;;;;;;;10.27;7.60;;;8.40;99.90;;;;;;5056669;28;20250;-71
2022/03/28 04:42:29;;;;;;;9.68;8.18;;;8.40;99.90;;;;;;5051563;28;20224;-71
2022/03/28 04:44:56;;;;;;;9.38;8.18;;;8.40;99.90;;;;;;5050976;28;20415;-71
2022/03/28 04:47:24;;;;;;;15.90;7.43;;;8.40;99.90;;;;;;5053963;28;20277;-72
2022/03/28 04:49:50;;;;;;;8.82;7.50;;;8.30;99.90;;;;;;5064531;28;20557;-72
2022/03/28 04:52:17;;;;;;;9.48;6.72;;;8.30;99.90;;;;;;5052195;28;20198;-71
2022/03/28 04:54:44;;;;;;;8.73;7.03;;;8.30;99.90;;;;;;5060008;28;20233;-71
2022/03/28 04:57:11;;;;;;;11.13;7.93;;;8.30;99.90;;;;;;5053514;28;20202;-73
2022/03/28 04:59:37;;;;;;;10.68;7.90;;;8.20;99.90;;;;;;5054823;28;20247;-71
2022/03/28 05:02:06;;;;;;;8.85;7.28;;;8.20;99.90;;;;;;5051759;28;20221;-72
2022/03/28 05:04:34;;;;;;;11.80;6.10;;;8.20;99.90;;;;;;5060203;28;20248;-71
2022/03/28 05:07:00;;;;;;;8.32;7.45;;;8.20;99.90;;;;;;5055588;28;20201;-73
2022/03/28 05:09:27;;;;;;;8.38;7.45;;;8.20;99.90;;;;;;5056705;28;20831;-72
2022/03/28 05:11:54;;;;;;;12.32;7.70;;;8.20;99.90;;;;;;5053775;28;20248;-71
2022/03/28 05:14:22;;;;;;;14.25;8.68;;;8.10;99.90;;;;;;5049845;28;20312;-71
2022/03/28 05:16:49;;;;;;;8.65;7.82;;;8.10;99.90;;;;;;5060963;28;20284;-71
2022/03/28 05:19:16;;;;;;;14.13;8.77;;;8.10;99.90;;;;;;5063068;28;20197;-70
2022/03/28 05:21:44;;;;;;;19.20;8.23;;;8.00;99.90;;;;;;5050670;28;20202;-72
2022/03/28 05:24:11;;;;;;;16.23;7.30;;;8.00;99.90;;;;;;5053097;28;20306;-71
2022/03/28 05:26:37;;;;;;;11.13;8.60;;;8.10;99.90;;;;;;5052818;28;20205;-70
2022/03/28 05:29:04;;;;;;;14.10;9.60;;;8.20;99.90;;;;;;5057682;28;20701;-70
2022/03/28 05:31:31;;;;;;;11.70;8.77;;;8.20;99.90;;;;;;5053029;28;20697;-70
2022/03/28 05:33:57;;;;;;;15.00;8.35;;;8.10;99.90;;;;;;5052290;28;20206;-70
2022/03/28 05:36:24;;;;;;;15.50;8.00;;;8.10;99.90;;;;;;5058307;28;20226;-70
2022/03/28 05:38:52;;;;;;;12.02;8.35;;;8.20;99.90;;;;;;5063229;28;20650;-71
2022/03/28 05:41:19;;;;;;;11.50;8.10;;;8.20;99.90;;;;;;5052821;28;20209;-71
2022/03/28 05:43:46;;;;;;;12.13;8.15;;;8.20;99.90;;;;;;5052181;28;20217;-71
2022/03/28 05:46:12;;;;;;;12.05;9.18;;;8.20;99.90;;;;;;5058664;28;20233;-70
2022/03/28 05:48:39;;;;;;;15.80;9.48;;;8.20;99.90;;;;;;5057820;28;20194;-70
2022/03/28 05:51:06;;;;;;;9.50;8.50;;;8.30;99.90;;;;;;5068021;28;20282;-71
2022/03/28 05:53:32;;;;;;;13.50;8.68;;;8.30;99.90;;;;;;5068078;28;20220;-70
2022/03/28 05:56:03;;;;;;;8.20;7.38;;;8.30;99.90;;;;;;5056850;28;20327;-71
2022/03/28 05:58:29;;;;;;;8.43;7.63;;;8.30;99.90;;;;;;5055235;28;20209;-70
2022/03/28 06:00:58;;;;;;;7.65;6.35;;;8.30;99.90;;;;;;5056008;28;20201;-70
2022/03/28 06:03:25;;;;;;;9.50;8.50;;;8.30;99.90;;;;;;5054076;28;20256;-72
2022/03/28 06:05:52;;;;;;;12.93;8.90;;;8.40;99.90;;;;;;5051867;28;20233;-70
2022/03/28 06:08:18;;;;;;;8.70;7.28;;;8.40;99.90;;;;;;5051901;28;20202;-70
2022/03/28 06:10:45;;;;;;;11.20;6.70;;;8.40;99.90;;;;;;5051370;28;20210;-70
2022/03/28 06:13:13;;;;;;;10.73;7.95;;;8.50;99.90;;;;;;5051840;28;20205;-70
2022/03/28 06:15:41;;;;;;;7.55;6.72;;;8.50;99.90;;;;;;5061591;28;20320;-71
2022/03/28 06:18:08;;;;;;;8.02;7.22;;;8.60;99.90;;;;;;5053635;28;20206;-70
2022/03/28 06:20:35;;;;;;;9.77;8.43;;;8.60;99.90;;;;;;5070667;28;20208;-69
2022/03/28 06:23:03;;;;;;;15.15;6.93;;;8.70;99.90;;;;;;5057620;28;20243;-70
2022/03/28 06:25:30;;;;;;;7.95;5.80;;;8.70;99.90;;;;;;5067290;28;20277;-70
2022/03/28 06:27:56;;;;;;;11.73;5.78;;;8.70;99.90;;;;;;5057713;28;20668;-70
2022/03/28 06:30:24;;;;;;;7.70;6.93;;;8.70;99.90;;;;;;5053581;28;20212;-63
2022/03/28 06:32:51;;;;;;;8.68;7.85;;;8.80;99.90;;;;;;5049400;28;20200;-63
2022/03/28 06:35:18;;;;;;;11.38;7.90;;;8.80;99.90;;;;;;5050471;28;20279;-70
2022/03/28 06:37:45;;;;;;;10.75;8.07;;;8.90;99.90;;;;;;5054115;28;20263;-70
2022/03/28 06:40:12;;;;;;;10.52;8.02;;;9.00;99.90;;;;;;5054164;28;20205;-69
2022/03/28 06:42:39;;;;;;;13.55;7.95;;;9.00;99.90;;;;;;5052790;28;20221;-70
2022/03/28 06:45:09;;;;;;;11.80;8.27;;;9.10;99.90;;;;;;5051955;28;20247;-70
2022/03/28 06:47:37;;;;;;;10.73;8.55;;;9.10;99.90;;;;;;5051153;28;20219;-70
2022/03/28 06:50:05;;;;;;;11.38;8.40;;;9.10;99.90;;;;;;5064157;28;20208;-70
2022/03/28 06:52:31;;;;;;;8.70;7.72;;;9.10;99.90;;;;;;5064940;28;20197;-70
2022/03/28 06:54:58;;;;;;;10.68;7.65;;;9.20;99.90;;;;;;5063841;28;20225;-72
2022/03/28 06:57:25;;;;;;;9.50;8.60;;;9.20;99.90;;;;;;5064149;28;20197;-71
2022/03/28 06:59:52;;;;;;;13.85;9.35;;;9.30;99.90;;;;;;5056465;28;20268;-71
2022/03/28 07:02:19;;;;;;;11.00;7.82;;;9.30;99.90;;;;;;5049212;28;20275;-71
2022/03/28 07:04:48;;;;;;;8.63;6.70;;;9.40;99.90;;;;;;5058470;28;20225;-71
2022/03/28 07:07:15;;;;;;;13.85;9.68;;;9.40;99.90;;;;;;5052820;28;20603;-69
2022/03/28 07:09:41;;;;;;;9.80;7.28;;;9.60;99.90;;;;;;5060444;28;20258;-70
2022/03/28 07:12:09;;;;;;;10.30;8.60;;;9.60;99.90;;;;;;5074285;28;20198;-70
2022/03/28 07:14:36;;;;;;;11.48;9.20;;;9.70;99.90;;;;;;5053125;28;20483;-69
2022/03/28 07:17:03;;;;;;;17.73;9.53;;;9.80;99.90;;;;;;5061639;28;20202;-69
2022/03/28 07:19:30;;;;;;;13.03;8.67;;;9.90;99.90;;;;;;5048897;28;20964;-70
2022/03/28 07:21:58;;;;;;;11.60;8.80;;;10.00;99.90;;;;;;5046287;28;20964;-69
2022/03/28 07:24:25;;;;;;;11.10;8.40;;;10.20;99.90;;;;;;5050002;28;20519;-70
2022/03/28 07:26:53;;;;;;;12.97;9.10;;;10.30;99.90;;;;;;5051750;28;20452;-70
2022/03/28 07:29:20;;;;;;;8.40;7.60;;;10.40;99.90;;;;;;5050642;28;20987;-70
2022/03/28 07:31:47;;;;;;;10.97;9.87;;;10.60;99.90;;;;;;5050642;28;20943;-71
2022/03/28 07:37:09;;;;;;;14.10;8.37;;;10.90;99.90;;;;;;5030384;28;20527;-69
2022/03/28 07:39:38;;;;;;;9.93;8.20;;;11.10;99.90;;;;;;5078831;28;20452;-69
2022/03/28 07:42:07;;;;;;;12.07;8.53;;;11.20;99.90;;;;;;5072051;28;20766;-69
2022/03/28 07:44:48;;;;;;;8.90;8.00;;;11.40;99.90;;;;;;5066653;28;20487;-69
2022/03/28 07:47:15;;;;;;;10.20;8.40;;;11.60;99.90;;;;;;5073730;28;20436;-69
2022/03/28 07:49:44;;;;;;;12.73;8.93;;;11.70;99.90;;;;;;5072827;28;20486;-70
2022/03/28 07:52:12;;;;;;;9.27;8.27;;;11.90;99.90;;;;;;5057360;28;20448;-69
2022/03/28 07:54:39;;;;;;;10.10;7.73;;;12.00;99.90;;;;;;5042672;28;20468;-69
2022/03/28 07:57:06;;;;;;;8.80;7.93;;;12.20;99.90;;;;;;5048832;28;20452;-69
2022/03/28 07:59:33;;;;;;;9.57;8.60;;;12.30;99.90;;;;;;5053710;28;21011;-69
2022/03/28 08:01:59;;;;;;;9.17;7.80;;;12.50;99.90;;;;;;5051749;28;20522;-70
2022/03/28 08:04:26;;;;;;;10.77;8.43;;;12.70;99.90;;;;;;5050785;28;20491;-69
2022/03/28 08:06:53;;;;;;;10.57;9.40;;;12.90;99.90;;;;;;5054002;28;20451;-70
2022/03/28 08:09:21;;;;;;;9.27;8.27;;;13.00;99.90;;;;;;5053371;28;20458;-69
2022/03/28 08:11:48;;;;;;;12.67;9.50;;;13.30;99.90;;;;;;5051341;28;20513;-68
2022/03/28 08:14:14;;;;;;;13.23;7.67;;;13.50;99.90;;;;;;5058007;28;20445;-68
2022/03/28 08:16:41;;;;;;;17.07;9.93;;;13.70;99.90;;;;;;5052750;28;20451;-69
2022/03/28 08:19:08;;;;;;;10.40;9.33;;;13.90;99.90;;;;;;5051080;28;20464;-69
2022/03/28 08:21:34;;;;;;;13.60;9.00;;;14.00;99.90;;;;;;5054095;28;20486;-70
2022/03/28 08:24:01;;;;;;;18.53;9.60;;;14.10;99.90;;;;;;5066868;28;20475;-69
2022/03/28 08:26:30;;;;;;;10.07;7.73;;;14.30;99.90;;;;;;5068624;28;20505;-70
2022/03/28 08:28:57;;;;;;;10.60;8.67;;;14.50;99.90;;;;;;5051884;28;20540;-70
2022/03/28 08:31:23;;;;;;;9.93;8.60;;;14.60;99.90;;;;;;5056415;28;20432;-70
2022/03/28 08:33:51;;;;;;;9.20;8.20;;;14.80;99.90;;;;;;5069401;28;20806;-70
2022/03/28 08:36:18;;;;;;;11.50;9.53;;;15.00;99.90;;;;;;5057545;28;20501;-69
2022/03/28 08:38:44;;;;;;;11.30;9.40;;;15.10;99.90;;;;;;5053525;28;20455;-69
2022/03/28 08:41:14;;;;;;;10.57;8.50;;;15.30;99.90;;;;;;5054927;28;20509;-71
2022/03/28 08:43:42;;;;;;;11.27;9.10;;;15.50;99.90;;;;;;5062476;28;20485;-70
2022/03/28 08:46:10;;;;;;;12.83;9.80;;;15.70;99.90;;;;;;5062942;28;20475;-72
2022/03/28 08:48:40;;;;;;;11.73;9.47;;;15.90;99.90;;;;;;5072767;28;20436;-70
2022/03/28 08:51:16;;;;;;;12.87;9.00;;;16.00;99.90;;;;;;5067199;28;20517;-70
2022/03/28 08:53:43;;;;;;;;;;;16.10;99.90;;;;;;5085402;28;20462;-70
2022/03/28 08:56:10;;;;;;;;;;;16.30;99.90;;;;;;5055895;28;20048;-70
2022/03/28 08:58:37;;;;;;;;;;;16.50;99.90;;;;;;5055557;28;19925;-69
2022/03/28 09:01:05;;;;;;;;;;;16.70;99.90;;;;;;5054306;28;19975;-70
2022/03/28 09:03:38;;;;;;;;;;;16.80;99.90;;;;;;5054354;28;19931;-70
2022/03/28 09:06:26;;;;;;;;;;;17.00;99.90;;;;;;5052515;28;19968;-69
2022/03/28 09:08:52;;;;;;;;;;;17.20;99.90;;;;;;5049338;28;20026;-69
2022/03/28 09:11:22;;;;;;;;;;;17.30;99.90;;;;;;5052591;28;19941;-69
2022/03/28 09:13:48;;;;;;;;;;;17.40;99.90;;;;;;5056946;28;19929;-70
2022/03/28 09:16:19;;;;;;;;;;;17.60;99.90;;;;;;5071705;28;19932;-70
2022/03/28 09:18:46;;;;;;;;;;;17.70;99.90;;;;;;5064314;28;20023;-69
2022/03/28 09:21:14;;;;;;;;;;;18.00;99.90;;;;;;5048387;28;20323;-69
2022/03/28 09:23:42;;;;;;;;;;;18.20;99.90;;;;;;5055324;28;19925;-69
2022/03/28 09:26:20;;;;;;;;;;;18.30;99.90;;;;;;5061735;28;19947;-70
2022/03/28 09:28:48;;;;;;;;;;;18.40;99.90;;;;;;5061795;28;19931;-69
2022/03/28 09:31:24;;;;;;;;;;;18.50;99.90;;;;;;5055166;28;20459;-69
2022/03/28 09:33:51;;;;;;;;;;;18.60;99.90;;;;;;5063665;28;20422;-70
2022/03/28 09:36:17;;;;;;;;;;;18.70;99.90;;;;;;5064860;28;19978;-71
2022/03/28 09:38:55;;;;;;;;;;;18.80;99.90;;;;;;5057937;28;19932;-69
2022/03/28 09:41:23;;;;;;;;;;;18.90;99.90;;;;;;5064668;28;19979;-70
2022/03/28 09:43:53;;;;;;;;;;;19.10;99.90;;;;;;5053550;28;19983;-71
2022/03/28 09:46:26;;;;;;;;;;;19.30;99.90;;;;;;5052710;28;20403;-69
2022/03/28 09:48:53;;;;;;;;;;;19.50;99.90;;;;;;5041589;28;19964;-69
2022/03/28 09:51:21;;;;;;;;;;;19.60;99.90;;;;;;5053572;28;19987;-70
2022/03/28 09:53:48;;;;;;;;;;;19.70;99.90;;;;;;5056186;28;19913;-68
2022/03/28 09:56:15;;;;;;;;;;;19.90;99.90;;;;;;5053106;28;20359;-69
2022/03/28 09:58:46;;;;;;;;;;;20.10;99.90;;;;;;5053890;28;19925;-76
2022/03/28 10:01:14;;;;;;;;;;;20.40;99.90;;;;;;5070927;28;19925;-65
2022/03/28 10:03:44;;;;;;;;;;;20.60;99.90;;;;;;5077597;28;19936;-64
2022/03/28 10:06:10;;;;;;;;;;;20.90;99.90;;;;;;5069227;28;19936;-63
2022/03/28 10:08:37;;;;;;;;;;;21.10;99.90;;;;;;5073176;28;19932;-68
2022/03/28 10:11:04;;;;;;;;;;;21.30;99.90;;;;;;5058383;28;19944;-64
2022/03/28 10:13:31;;;;;;;;;;;21.50;99.90;;;;;;5055844;28;19928;-65
2022/03/28 10:15:58;;;;;;;;;;;21.70;99.90;;;;;;5082088;22;20011;-63
2022/03/28 10:18:27;;;;;;;;;;;21.80;99.90;;;;;;5066099;28;19975;-64
2022/03/28 10:20:56;;;;;;;;;;;22.00;99.90;;;;;;5058381;28;19996;-70
2022/03/28 10:23:23;;;;;;;;;;;22.10;99.90;;;;;;5065157;28;19944;-69
2022/03/28 10:25:51;;;;;;;;;;;22.10;99.90;;;;;;5051877;28;20004;-68
2022/03/28 10:28:19;;;;;;;;;;;22.20;99.90;;;;;;5053526;28;19936;-69
2022/03/28 10:30:45;;;;;;;;;;;22.20;99.90;;;;;;5050722;28;19932;-68
2022/03/28 10:33:14;;;;;;;;;;;22.40;99.90;;;;;;5037821;28;19933;-68
2022/03/28 10:35:55;;;;;;;;;;;22.40;99.90;;;;;;5045122;28;19932;-68
2022/03/28 10:38:22;;;;;;;;;;;22.40;99.90;;;;;;5044635;28;19929;-70
2022/03/28 10:40:53;;;;;;;;;;;22.60;99.90;;;;;;5037787;28;19924;-69
2022/03/28 10:43:19;;;;;;;;;;;22.60;99.90;;;;;;5046925;28;20044;-70
2022/03/28 10:45:49;;;;;;;;;;;22.70;99.90;;;;;;5042081;28;19937;-68
2022/03/28 10:48:17;;;;;;;;;;;22.80;99.90;;;;;;5054038;28;19933;-69
2022/03/28 10:50:50;;;;;;;;;;;22.90;99.90;;;;;;5043231;28;19929;-69
2022/03/28 10:53:18;;;;;;;;;;;22.80;99.90;;;;;;5040711;28;20541;-69
2022/03/28 10:55:47;;;;;;;;;;;22.90;99.90;;;;;;5040395;28;19933;-70
2022/03/28 10:58:16;;;;;;;;;;;23.10;99.90;;;;;;5032081;28;20501;-70
2022/03/28 11:01:01;;;;;;;;;;;23.20;99.90;;;;;;5039091;28;19974;-69
2022/03/28 11:03:33;;;;;;;;;;;23.20;99.90;;;;;;5050156;28;19924;-69
2022/03/28 11:06:00;;;;;;;;;;;23.40;99.90;;;;;;5048966;28;20277;-69
2022/03/28 11:08:30;;;;;;;;;;;23.60;99.90;;;;;;5051784;28;19943;-69
2022/03/28 11:11:22;;;;;;;;;;;23.80;99.90;;;;;;5045978;28;19933;-69
2022/03/28 11:13:58;;;;;;;;;;;23.90;99.90;;;;;;5047498;28;19924;-69
2022/03/28 11:16:42;;;;;;;;;;;24.00;99.30;;;;;;5054474;28;19943;-69
2022/03/28 11:19:22;;;;;;;;;;;23.80;99.30;;;;;;5041995;28;20345;-69
2022/03/28 11:21:58;;;;;;;;;;;24.10;99.90;;;;;;5045397;28;19998;-69
2022/03/28 11:24:43;;;;;;;;;;;24.30;99.70;;;;;;5047910;28;19989;-70
2022/03/28 11:27:11;;;;;;;;;;;24.70;99.10;;;;;;5043198;28;19925;-70
2022/03/28 11:29:38;;;;;;;;;;;25.10;98.10;;;;;;5056694;28;19925;-69
2022/03/28 11:32:05;;;;;;;;;;;25.50;98.30;;;;;;5048121;28;19924;-69
2022/03/28 11:34:32;;;;;;;;;;;26.10;97.60;;;;;;5041079;28;20031;-69
2022/03/28 11:36:59;;;;;;;16.17;15.77;;;26.70;95.90;;;;;;5041257;28;21073;-69
2022/03/28 11:39:27;;;;;;;7.57;6.88;;;27.20;95.10;;;;;;5048677;28;20518;-71
2022/03/28 11:41:55;;;;;;;25.25;24.65;;;27.80;93.20;;;;;;5060360;28;20295;-69
2022/03/28 11:44:24;;;;;;;8.30;6.20;;;27.90;92.30;;;;;;5047855;28;20221;-70
2022/03/28 11:46:54;;;;;;;7.57;7.23;;;28.40;89.80;;;;;;5043668;28;20537;-69
2022/03/28 11:49:21;;;;;;;;;;;28.90;88.20;;;;;;5042652;28;20924;-69
2022/03/28 11:51:48;;;;;;;;;;;29.40;87.60;;;;;;5056379;28;19924;-70
2022/03/28 11:54:16;;;;;;;;;;;30.10;82.10;;;;;;5026696;28;20391;-69
2022/03/28 11:59:26;;;;;;;;;;;30.70;74.90;;;;;;5038599;28;20073;-70
2022/03/28 12:01:56;;;;;;;;;;;31.20;74.50;;;;;;5031363;28;20706;-71
2022/03/28 12:04:22;;;;;;;;;;;31.80;73.20;;;;;;5036804;28;19925;-71
2022/03/28 12:06:51;;;;;;;;;;;32.60;69.80;;;;;;5044782;28;19929;-71
2022/03/28 12:09:18;;;;;;;;;;;33.30;66.60;;;;;;5043880;28;19925;-71
2022/03/28 12:11:48;;;;;;;;;;;33.90;60.50;;;;;;5056117;28;20030;-71
2022/03/28 12:14:14;;;;;;;;;;;34.10;59.90;;;;;;5049626;28;20027;-70
2022/03/28 12:16:49;;;;;;;;;;;34.10;58.90;;;;;;5032110;28;19932;-71
2022/03/28 12:19:16;;;;;;;;;;;34.10;57.90;;;;;;5037989;28;20305;-70
2022/03/28 12:21:43;;;;;;;;;;;33.80;55.30;;;;;;5049183;28;19982;-68
2022/03/28 12:24:10;;;;;;;;;;;33.60;56.00;;;;;;5037255;28;20038;-70
2022/03/28 12:26:41;;;;;;;;;;;33.80;55.20;;;;;;5045625;28;20501;-70
2022/03/28 12:29:11;;;;;;;;;;;33.80;56.30;;;;;;5044328;28;19920;-69
2022/03/28 12:31:37;;;;;;;;;;;34.30;53.20;;;;;;5055924;28;19953;-70
2022/03/28 12:34:06;;;;;;;;;;;34.90;53.50;;;;;;5053523;28;20461;-69
2022/03/28 12:36:34;;;;;;;;;;;35.40;52.90;;;;;;5039648;28;20519;-69
2022/03/28 12:39:01;;;;;;;;;;;35.40;51.70;;;;;;5044333;28;19935;-69
2022/03/28 12:41:28;;;;;;;;;;;35.60;51.20;;;;;;5055043;28;20031;-70
2022/03/28 12:43:55;;;;;;;;;;;35.60;50.70;;;;;;5051645;28;20281;-69
2022/03/28 12:46:23;;;;;;;;;;;35.40;49.60;;;;;;5054819;28;20342;-70
2022/03/28 12:48:50;;;;;;;;;;;35.40;49.40;;;;;;5057985;28;19925;-70
2022/03/28 12:51:24;;;;;;;;;;;35.40;49.80;;;;;;5040227;28;19929;-70
2022/03/28 12:53:51;;;;;;;40.50;38.90;;;35.30;49.40;;;;;;5043859;28;20532;-70
2022/03/28 12:56:20;;;;;;;26.13;25.33;;;35.10;49.60;;;;;;5040139;28;20226;-69
2022/03/28 12:58:53;;;;;;;26.58;25.88;;;35.40;48.40;;;;;;5030869;28;20453;-69
2022/03/28 13:01:24;;;;;;;;;;;35.10;47.50;;;;;;5054789;28;20305;-70
2022/03/28 13:03:50;;;;;;;;;;;34.80;48.30;;;;;;5038933;28;19955;-69
2022/03/28 13:06:17;;;;;;;;;;;35.00;48.10;;;;;;5044803;28;19921;-70
2022/03/28 13:08:45;;;;;;;;;;;34.80;48.30;;;;;;5045753;28;20015;-71
2022/03/28 13:11:12;;;;;;;;;;;34.80;47.30;;;;;;5039455;28;20388;-69
2022/03/28 13:13:40;;;;;;;;;;;34.40;48.10;;;;;;5043751;28;19928;-74
2022/03/28 13:16:07;;;;;;;;;;;34.10;48.30;;;;;;5037454;28;20370;-67
2022/03/28 13:18:35;;;;;;;;;;;33.70;47.80;;;;;;5052868;28;19951;-66
2022/03/28 13:21:02;;;;;;;;;;;33.30;48.00;;;;;;5048591;28;19986;-65
2022/03/28 13:23:32;;;;;;;;;;;32.30;49.00;;;;;;5043977;28;20408;-69